Time;durP1;ratioP1;P1;durP2;ratioP2;P2;SDS_P1;SDS_P2;PMS_P1;PMS_P2;Temp;Humidity;BMP_temperature;BMP_pressure;BME280_temperature;BME280_humidity;BME280_pressure;Samples;Min_cycle;Max_cycle;Signal;HPM_P1;HPM_P2
2023/03/12 00:01:59;;;;;;;6.30;2.80;;;;;;;-1.19;66.47;95115.44;4899035;29;20213;-86
2023/03/12 00:04:25;;;;;;;8.07;2.27;;;;;;;-1.20;65.90;95120.63;4913846;29;20193;-86
2023/03/12 00:06:51;;;;;;;3.17;2.20;;;;;;;-1.19;66.53;95122.28;4895124;29;20217;-88
2023/03/12 00:09:16;;;;;;;4.40;2.23;;;;;;;-1.14;66.25;95117.75;4889066;29;20650;-87
2023/03/12 00:11:41;;;;;;;7.60;2.37;;;;;;;-1.17;66.41;95121.25;4894866;29;20663;-86
2023/03/12 00:14:07;;;;;;;4.53;2.13;;;;;;;-1.17;66.56;95123.00;4904403;29;20654;-85
2023/03/12 00:16:32;;;;;;;6.13;2.30;;;;;;;-1.21;66.85;95124.09;4903510;29;20675;-86
2023/03/12 00:18:57;;;;;;;4.63;2.50;;;;;;;-1.26;67.27;95126.88;4915603;29;20196;-87
2023/03/12 00:21:23;;;;;;;7.27;3.20;;;;;;;-1.29;67.95;95127.06;4908530;29;20190;-86
2023/03/12 00:23:49;;;;;;;6.13;3.27;;;;;;;-1.31;68.37;95122.97;4906811;29;20233;-86
2023/03/12 00:26:14;;;;;;;7.40;3.03;;;;;;;-1.35;68.65;95124.84;4912862;29;20226;-86
2023/03/12 00:28:40;;;;;;;8.40;3.00;;;;;;;-1.35;69.22;95111.31;4915980;29;20194;-87
2023/03/12 00:31:15;;;;;;;7.20;3.50;;;;;;;-1.37;69.29;95110.56;4903190;29;20229;-86
2023/03/12 00:33:40;;;;;;;6.37;2.70;;;;;;;-1.41;69.72;95112.50;4896649;29;20191;-86
2023/03/12 00:36:06;;;;;;;5.60;2.73;;;;;;;-1.45;70.05;95111.00;4906944;29;20616;-85
2023/03/12 00:38:31;;;;;;;7.13;2.33;;;;;;;-1.45;70.57;95106.72;4912893;29;20194;-85
2023/03/12 00:40:56;;;;;;;7.10;2.57;;;;;;;-1.49;70.57;95105.28;4915140;29;20205;-85
2023/03/12 00:43:22;;;;;;;5.13;2.80;;;;;;;-1.50;70.90;95110.47;4908592;29;20229;-85
2023/03/12 00:45:47;;;;;;;6.67;3.40;;;;;;;-1.54;71.15;95106.41;4903242;29;20213;-86
2023/03/12 00:48:12;;;;;;;7.43;3.53;;;;;;;-1.47;70.91;95111.09;4905422;29;20202;-85
2023/03/12 00:50:38;;;;;;;12.17;5.00;;;;;;;-1.43;70.77;95106.63;4902041;29;20192;-85
2023/03/12 00:53:03;;;;;;;9.30;4.60;;;;;;;-1.39;71.05;95104.75;4906875;29;20381;-85
2023/03/12 00:55:29;;;;;;;10.17;4.60;;;;;;;-1.44;71.50;95110.91;4911669;29;20269;-86
2023/03/12 00:57:54;;;;;;;21.47;7.70;;;;;;;-1.42;71.62;95110.81;4916384;29;20201;-86
2023/03/12 01:00:20;;;;;;;18.67;6.93;;;;;;;-1.30;71.62;95109.31;4907736;29;20284;-85
2023/03/12 01:02:45;;;;;;;20.90;6.50;;;;;;;-1.22;71.19;95102.06;4887342;29;20649;-87
2023/03/12 01:05:11;;;;;;;11.33;4.63;;;;;;;-1.18;70.86;95106.06;4908065;29;20563;-86
2023/03/12 01:07:37;;;;;;;10.90;4.07;;;;;;;-1.15;70.71;95098.25;4888049;29;20679;-85
2023/03/12 01:10:03;;;;;;;8.73;3.37;;;;;;;-1.11;71.23;95094.63;4892069;29;20197;-89
2023/03/12 01:12:28;;;;;;;13.07;3.27;;;;;;;-1.14;71.42;95105.00;4896148;29;1069841;-89
2023/03/12 01:14:53;;;;;;;10.00;3.67;;;;;;;-0.98;70.75;95097.28;4924849;29;20524;-90
2023/03/12 01:17:19;;;;;;;11.37;3.17;;;;;;;-0.92;70.46;95107.13;4911791;29;20211;-86
2023/03/12 01:19:44;;;;;;;7.60;2.97;;;;;;;-0.82;69.98;95104.84;4898700;29;20746;-86
2023/03/12 01:22:09;;;;;;;7.77;3.23;;;;;;;-0.73;69.78;95104.31;4906715;29;20214;-85
2023/03/12 01:24:37;;;;;;;5.20;2.50;;;;;;;-0.70;69.84;95102.41;4897613;29;20542;-85
2023/03/12 01:27:02;;;;;;;7.73;3.57;;;;;;;-0.69;69.50;95105.78;4917855;29;20706;-85
2023/03/12 01:29:28;;;;;;;9.27;3.00;;;;;;;-0.64;69.75;95099.50;4924298;29;20183;-89
2023/03/12 01:31:53;;;;;;;10.23;4.03;;;;;;;-0.62;69.84;95089.19;4937454;29;20198;-87
2023/03/12 01:34:18;;;;;;;10.70;4.43;;;;;;;-0.56;69.91;95099.03;4929859;29;20202;-86
2023/03/12 01:36:45;;;;;;;9.97;3.70;;;;;;;-0.55;70.33;95102.41;4910717;29;20224;-87
2023/03/12 01:39:10;;;;;;;7.30;3.50;;;;;;;-0.57;70.36;95110.16;4906177;29;20245;-86
2023/03/12 01:41:36;;;;;;;8.57;3.60;;;;;;;-0.60;70.14;95100.16;4913627;29;20555;-85
2023/03/12 01:44:02;;;;;;;7.30;3.57;;;;;;;-0.64;70.99;95104.59;4906918;29;20187;-88
2023/03/12 01:46:29;;;;;;;11.47;4.07;;;;;;;-0.63;71.08;95111.31;4933503;29;20216;-87
2023/03/12 01:49:14;;;;;;;9.93;3.63;;;;;;;-0.58;70.03;95105.97;4912343;29;20628;-85
2023/03/12 01:51:54;;;;;;;9.07;3.40;;;;;;;-0.64;69.96;95103.78;4907275;29;20681;-86
2023/03/12 01:54:26;;;;;;;12.50;3.60;;;;;;;-0.65;70.03;95104.69;4917725;29;20187;-85
2023/03/12 01:56:51;;;;;;;6.20;2.93;;;;;;;-0.66;69.96;95095.41;4912856;29;20810;-84
2023/03/12 01:59:23;;;;;;;5.97;2.67;;;;;;;-0.63;70.05;95102.84;4894441;29;20206;-85
2023/03/12 02:01:49;;;;;;;6.70;2.50;;;;;;;-0.70;70.76;95101.59;4892486;29;20352;-85
2023/03/12 02:04:17;;;;;;;4.33;2.53;;;;;;;-0.70;71.09;95087.13;4907088;29;20202;-84
2023/03/12 02:06:48;;;;;;;5.93;3.10;;;;;;;-0.65;70.79;95094.47;4898499;29;20278;-85
2023/03/12 02:09:14;;;;;;;8.70;3.03;;;;;;;-0.66;70.82;95087.75;4912870;29;20242;-85
2023/03/12 02:11:39;;;;;;;10.20;3.50;;;;;;;-0.59;70.56;95081.38;4907826;29;20249;-85
2023/03/12 02:14:04;;;;;;;9.30;3.00;;;;;;;-0.64;70.71;95083.38;4895600;29;20281;-85
2023/03/12 02:16:30;;;;;;;10.43;3.93;;;;;;;-0.60;70.27;95085.66;4898441;29;20218;-86
2023/03/12 02:18:56;;;;;;;9.97;3.90;;;;;;;-0.55;70.42;95082.81;4910190;29;20183;-86
2023/03/12 02:21:27;;;;;;;10.73;4.60;;;;;;;-0.51;70.55;95075.81;4908317;29;20547;-86
2023/03/12 02:24:04;;;;;;;12.43;4.50;;;;;;;-0.49;70.26;95079.09;4894370;29;20193;-86
2023/03/12 02:26:29;;;;;;;8.43;3.40;;;;;;;-0.49;70.08;95087.56;4916476;29;20235;-86
2023/03/12 02:28:55;;;;;;;8.13;3.00;;;;;;;-0.51;70.72;95076.63;4902425;29;20304;-86
2023/03/12 02:31:23;;;;;;;8.53;3.00;;;;;;;-0.55;71.25;95087.09;4906810;29;20253;-87
2023/03/12 02:33:48;;;;;;;5.23;2.67;;;;;;;-0.58;71.12;95077.91;4910372;29;20211;-86
2023/03/12 02:36:14;;;;;;;8.20;2.70;;;;;;;-0.63;70.86;95074.81;4909180;29;20221;-86
2023/03/12 02:38:43;;;;;;;6.27;2.20;;;;;;;-0.62;71.32;95084.09;4900959;29;20572;-86
2023/03/12 02:41:16;;;;;;;4.97;2.27;;;;;;;-0.62;72.11;95086.63;4899289;29;20186;-86
2023/03/12 02:43:52;;;;;;;2.87;2.33;;;;;;;-0.63;71.89;95083.28;4911630;29;20222;-86
2023/03/12 02:46:22;;;;;;;5.83;3.17;;;;;;;-0.59;72.01;95082.19;4914652;29;20215;-87
2023/03/12 02:48:48;;;;;;;5.07;2.40;;;;;;;-0.64;73.10;95075.72;4919528;29;20204;-86
2023/03/12 02:51:17;;;;;;;3.50;2.57;;;;;;;-0.57;72.88;95069.34;4897943;29;20604;-86
2023/03/12 02:53:53;;;;;;;6.53;3.10;;;;;;;-0.53;72.79;95070.81;4918015;29;20265;-85
2023/03/12 02:56:26;;;;;;;4.77;2.50;;;;;;;-0.48;72.71;95063.69;4917481;29;20396;-86
2023/03/12 02:58:55;;;;;;;3.33;1.90;;;;;;;-0.40;72.65;95064.03;4914881;29;20250;-87
2023/03/12 03:01:21;;;;;;;5.50;2.63;;;;;;;-0.35;72.33;95059.50;4891241;29;20739;-87
2023/03/12 03:03:52;;;;;;;4.50;2.13;;;;;;;-0.20;72.03;95059.44;4904119;29;20266;-86
2023/03/12 03:06:20;;;;;;;3.93;2.20;;;;;;;-0.14;72.01;95048.88;4888469;29;20217;-86
2023/03/12 03:08:50;;;;;;;5.57;2.10;;;;;;;-0.08;71.90;95059.53;4909875;29;20285;-87
2023/03/12 03:11:16;;;;;;;4.37;2.33;;;;;;;0.05;71.62;95056.19;4902172;29;20206;-87
2023/03/12 03:14:02;;;;;;;7.83;5.57;;;;;;;-0.02;71.60;95059.13;4901079;29;20186;-86
2023/03/12 03:16:30;;;;;;;7.53;6.00;;;;;;;0.06;71.60;95060.38;4903452;29;20711;-87
2023/03/12 03:18:58;;;;;;;7.13;4.43;;;;;;;0.05;72.26;95072.34;4918193;29;20202;-86
2023/03/12 03:21:24;;;;;;;3.80;3.00;;;;;;;0.02;72.18;95069.97;4898981;29;20652;-86
2023/03/12 03:23:55;;;;;;;6.33;2.23;;;;;;;-0.10;72.49;95074.09;4914857;29;20201;-88
2023/03/12 03:26:32;;;;;;;9.23;2.80;;;;;;;0.03;71.76;95069.06;4913118;29;20218;-86
2023/03/12 03:28:58;;;;;;;4.27;2.43;;;;;;;0.04;72.00;95068.16;4892702;29;20192;-86
2023/03/12 03:31:23;;;;;;;5.70;2.83;;;;;;;0.19;71.84;95077.41;4901870;29;20190;-86
2023/03/12 03:33:54;;;;;;;6.23;2.80;;;;;;;0.20;71.86;95071.38;4899380;29;20191;-85
2023/03/12 03:36:22;;;;;;;6.63;2.50;;;;;;;0.37;71.21;95066.94;4897476;29;20293;-86
2023/03/12 03:38:49;;;;;;;10.67;3.50;;;;;;;0.51;70.90;95065.13;4913193;29;20208;-87
2023/03/12 03:41:19;;;;;;;5.87;4.40;;;;;;;0.62;70.89;95054.25;4906836;29;20194;-86
2023/03/12 03:43:47;;;;;;;5.60;4.57;;;;;;;0.65;71.61;95040.44;4912513;29;20235;-86
2023/03/12 03:46:14;;;;;;;8.37;4.23;;;;;;;0.67;71.78;95039.41;4930381;29;20206;-86
2023/03/12 03:48:40;;;;;;;8.23;4.03;;;;;;;0.73;71.20;95044.13;4906537;29;20195;-86
2023/03/12 03:51:07;;;;;;;3.20;2.90;;;;;;;0.74;71.50;95044.94;4908117;29;20538;-85
2023/03/12 03:53:38;;;;;;;7.90;3.97;;;;;;;0.73;71.62;95041.56;4892516;29;20194;-85
2023/03/12 03:56:12;;;;;;;7.23;2.77;;;;;;;0.74;71.34;95040.66;4912749;29;20222;-85
2023/03/12 03:58:37;;;;;;;4.57;2.93;;;;;;;0.79;71.44;95050.56;4911868;29;20190;-86
2023/03/12 04:01:03;;;;;;;5.83;3.17;;;;;;;0.92;71.02;95050.59;4900704;29;20190;-86
2023/03/12 04:03:31;;;;;;;6.73;3.07;;;;;;;1.00;70.83;95048.34;4910376;29;20214;-87
2023/03/12 04:05:58;;;;;;;8.10;3.00;;;;;;;1.02;71.08;95049.88;4907641;29;20207;-86
2023/03/12 04:08:24;;;;;;;4.93;2.90;;;;;;;0.96;71.52;95041.78;4890679;29;20187;-86
2023/03/12 04:10:49;;;;;;;5.67;2.87;;;;;;;0.91;71.89;95044.66;4906472;29;20239;-85
2023/03/12 04:13:15;;;;;;;6.00;3.13;;;;;;;0.99;72.01;95044.16;4909204;29;20626;-86
2023/03/12 04:15:48;;;;;;;4.43;2.93;;;;;;;1.04;72.74;95045.47;4912416;29;20211;-86
2023/03/12 04:18:14;;;;;;;9.70;3.70;;;;;;;0.97;73.08;95041.69;4905749;29;20183;-87
2023/03/12 04:20:39;;;;;;;8.03;3.10;;;;;;;1.07;72.84;95047.03;4908965;29;20186;-85
2023/03/12 04:23:04;;;;;;;5.10;3.40;;;;;;;1.12;73.28;95050.88;4898592;29;20202;-86
2023/03/12 04:25:30;;;;;;;8.27;3.70;;;;;;;1.20;72.69;95047.81;4904568;29;20269;-88
2023/03/12 04:27:55;;;;;;;8.27;4.00;;;;;;;1.15;73.33;95044.78;4909903;29;20186;-86
2023/03/12 04:30:21;;;;;;;7.17;4.50;;;;;;;1.20;74.14;95052.94;4919744;29;20182;-90
2023/03/12 04:32:46;;;;;;;6.10;4.60;;;;;;;1.24;74.02;95046.72;4930810;29;20175;-88
2023/03/12 04:35:11;;;;;;;7.50;4.50;;;;;;;1.26;73.73;95047.41;4933834;29;20182;-90
2023/03/12 04:37:37;;;;;;;7.80;4.30;;;;;;;1.32;73.98;95052.09;4912891;29;20220;-86
2023/03/12 04:40:06;;;;;;;7.50;4.43;;;;;;;1.37;73.61;95055.19;4913353;29;20718;-87
2023/03/12 04:42:33;;;;;;;5.77;4.77;;;;;;;1.29;74.32;95054.06;4910815;29;20258;-87
2023/03/12 04:44:58;;;;;;;8.10;4.70;;;;;;;1.19;74.66;95061.53;4914247;29;20191;-86
2023/03/12 04:47:24;;;;;;;5.43;3.90;;;;;;;1.36;73.68;95056.09;4903913;29;20645;-87
2023/03/12 04:49:49;;;;;;;7.57;4.40;;;;;;;1.38;74.18;95056.81;4899130;29;20616;-86
2023/03/12 04:52:16;;;;;;;6.80;4.30;;;;;;;1.44;73.96;95059.88;4913426;29;20665;-87
2023/03/12 04:54:42;;;;;;;9.50;4.90;;;;;;;1.45;73.67;95061.50;4916290;29;20608;-89
2023/03/12 04:57:07;;;;;;;7.60;4.80;;;;;;;1.41;74.01;95056.63;4907525;29;20274;-88
2023/03/12 04:59:33;;;;;;;10.47;4.80;;;;;;;1.51;73.94;95056.81;4921022;29;20186;-87
2023/03/12 05:01:58;;;;;;;7.37;4.93;;;;;;;1.35;74.81;95057.03;4916941;29;20210;-88
2023/03/12 05:04:24;;;;;;;10.07;5.80;;;;;;;1.40;74.50;95062.63;4909227;29;20278;-87
2023/03/12 05:06:49;;;;;;;6.83;5.23;;;;;;;1.44;74.90;95057.31;4918768;29;20208;-87
2023/03/12 05:09:14;;;;;;;8.10;4.77;;;;;;;1.39;75.44;95055.88;4910935;29;20385;-87
2023/03/12 05:11:40;;;;;;;7.73;4.63;;;;;;;1.31;76.63;95054.75;4893524;29;20214;-87
2023/03/12 05:14:05;;;;;;;9.03;5.63;;;;;;;1.29;77.13;95057.44;4903911;29;20217;-86
2023/03/12 05:16:31;;;;;;;9.80;5.80;;;;;;;1.23;77.97;95052.72;4912600;29;20801;-87
2023/03/12 05:18:56;;;;;;;8.40;5.50;;;;;;;1.28;78.66;95060.91;4912091;29;20270;-86
2023/03/12 05:21:22;;;;;;;8.83;5.27;;;;;;;1.21;79.39;95064.78;4899687;29;20190;-87
2023/03/12 05:23:47;;;;;;;6.50;5.17;;;;;;;1.28;79.15;95060.91;4918185;29;20254;-86
2023/03/12 05:26:18;;;;;;;9.90;5.17;;;;;;;1.26;80.19;95061.94;4894928;29;20286;-86
2023/03/12 05:28:44;;;;;;;6.80;5.03;;;;;;;1.25;80.82;95060.31;4900988;29;20194;-87
2023/03/12 05:31:10;;;;;;;5.23;4.67;;;;;;;1.35;80.46;95056.22;4910176;29;20538;-86
2023/03/12 05:33:36;;;;;;;6.90;5.10;;;;;;;1.28;81.33;95049.88;4912166;29;20643;-86
2023/03/12 05:36:01;;;;;;;6.23;4.97;;;;;;;1.29;81.77;95048.94;4909672;29;20219;-87
2023/03/12 05:38:27;;;;;;;7.13;4.90;;;;;;;1.26;82.52;95051.72;4909697;29;20282;-86
2023/03/12 05:40:54;;;;;;;7.97;5.10;;;;;;;1.39;81.82;95057.63;4896857;29;20642;-87
2023/03/12 05:43:22;;;;;;;8.67;5.70;;;;;;;1.35;82.04;95051.09;4909008;29;20222;-86
2023/03/12 05:45:48;;;;;;;6.17;5.17;;;;;;;1.39;82.30;95052.50;4901594;29;20218;-87
2023/03/12 05:48:19;;;;;;;7.17;5.27;;;;;;;1.32;82.93;95048.72;4902808;29;20187;-86
2023/03/12 05:50:45;;;;;;;7.87;5.20;;;;;;;1.22;83.18;95050.28;4919199;29;20198;-86
2023/03/12 05:53:13;;;;;;;5.20;4.70;;;;;;;1.24;83.27;95053.56;4901500;29;20207;-87
2023/03/12 05:55:39;;;;;;;6.30;5.10;;;;;;;1.38;82.70;95050.88;4905401;29;20266;-86
2023/03/12 05:58:05;;;;;;;7.70;4.70;;;;;;;1.44;82.09;95054.75;4900822;29;20199;-87
2023/03/12 06:00:37;;;;;;;6.80;5.07;;;;;;;1.41;82.27;95053.22;4915586;29;20199;-87
2023/03/12 06:03:11;;;;;;;8.27;5.70;;;;;;;1.30;82.99;95048.84;4901654;29;20207;-86
2023/03/12 06:05:47;;;;;;;9.27;5.40;;;;;;;1.50;82.93;95042.34;4916379;29;20306;-87
2023/03/12 06:08:15;;;;;;;6.23;4.63;;;;;;;1.42;82.77;95040.34;4916134;29;20285;-87
2023/03/12 06:10:48;;;;;;;9.20;4.90;;;;;;;1.47;83.13;95044.31;4912487;29;20186;-90
2023/03/12 06:13:26;;;;;;;6.10;4.83;;;;;;;1.49;82.74;95042.47;4934329;29;20274;-90
2023/03/12 06:16:03;;;;;;;6.77;4.50;;;;;;;1.58;82.36;95037.53;4919060;29;20225;-91
2023/03/12 06:18:38;;;;;;;8.73;4.83;;;;;;;1.45;83.13;95038.50;4925287;29;20210;-91
2023/03/12 06:21:23;;;;;;;6.00;4.93;;;;;;;1.37;83.23;95034.72;4935001;29;20242;-92
2023/03/12 06:24:04;;;;;;;6.33;4.70;;;;;;;1.50;83.22;95036.41;4939622;28;20198;-91
2023/03/12 06:27:15;;;;;;;8.13;5.30;;;;;;;1.51;83.76;95031.22;4936885;29;20202;-90
2023/03/12 06:42:33;;;;;;;6.37;4.57;;;;;;;1.53;87.04;95033.66;4920327;29;20226;-87
2023/03/12 06:45:35;;;;;;;8.07;4.93;;;;;;;1.62;86.58;95026.16;4905256;29;20254;-86
2023/03/12 06:48:35;;;;;;;;;;;;;;;;;;;;;
2023/03/12 06:51:13;;;;;;;5.77;4.47;;;;;;;1.67;86.61;95033.50;4894722;29;20200;-86
2023/03/12 06:53:50;;;;;;;7.63;4.53;;;;;;;1.77;86.46;95026.84;4886454;29;20190;-86
2023/03/12 07:46:51;;;;;;;22.27;19.53;;;;;;;3.44;86.20;95038.53;4897007;29;20235;-84
2023/03/12 07:53:20;;;;;;;22.53;20.30;;;;;;;3.43;85.76;95047.19;4952059;29;20713;-84
2023/03/12 07:56:00;;;;;;;13.67;11.47;;;;;;;3.44;85.92;95037.72;4886012;29;20224;-84
2023/03/12 08:01:46;;;;;;;10.63;5.50;;;;;;;3.57;85.73;95043.56;4906444;29;20261;-83
2023/03/12 08:04:29;;;;;;;6.67;4.97;;;;;;;3.63;85.96;95049.06;4893414;29;20246;-85
2023/03/12 08:06:57;;;;;;;10.90;5.00;;;;;;;3.76;86.14;95054.06;4888247;29;20234;-84
2023/03/12 08:09:28;;;;;;;7.40;4.80;;;;;;;3.74;85.81;95055.94;4898589;29;20211;-83
2023/03/12 08:11:56;;;;;;;5.03;4.50;;;;;;;3.81;85.92;95058.84;4886986;29;20184;-85
2023/03/12 08:14:21;;;;;;;12.97;9.30;;;;;;;3.83;87.05;95056.97;4887150;29;20227;-84
2023/03/12 08:16:46;;;;;;;23.57;15.37;;;;;;;3.95;87.09;95061.16;4890813;29;20301;-83
2023/03/12 08:19:12;;;;;;;15.90;12.80;;;;;;;4.10;87.19;95062.53;4897858;29;20195;-85
2023/03/12 08:21:37;;;;;;;9.13;8.20;;;;;;;4.16;87.50;95071.53;4908736;29;20206;-87
2023/03/12 08:24:03;;;;;;;9.40;6.67;;;;;;;4.08;87.81;95082.41;4914840;29;20202;-84
2023/03/12 08:26:28;;;;;;;8.27;5.57;;;;;;;4.03;88.70;95081.94;4912629;29;20215;-85
2023/03/12 08:28:54;;;;;;;6.23;4.47;;;;;;;4.21;88.93;95082.25;4891292;29;20206;-89
2023/03/12 08:31:20;;;;;;;7.53;5.60;;;;;;;4.30;88.62;95078.16;4892324;29;20182;-85
2023/03/12 08:33:45;;;;;;;11.13;7.77;;;;;;;4.26;89.49;95065.53;4891793;29;20179;-85
2023/03/12 08:36:11;;;;;;;7.17;6.20;;;;;;;4.36;90.88;95072.53;4898794;29;20233;-85
2023/03/12 08:38:36;;;;;;;10.13;5.47;;;;;;;4.46;90.87;95071.66;4897625;29;20563;-86
2023/03/12 08:41:02;;;;;;;8.30;6.00;;;;;;;4.38;90.98;95075.78;4898255;29;20203;-87
2023/03/12 08:43:27;;;;;;;9.93;5.47;;;;;;;4.46;91.76;95079.38;4906865;29;20207;-86
2023/03/12 08:45:54;;;;;;;5.93;5.33;;;;;;;4.40;93.45;95076.47;4889614;29;20248;-86
2023/03/12 08:48:19;;;;;;;6.80;5.60;;;;;;;4.46;93.22;95076.00;4891914;29;20196;-86
2023/03/12 08:50:45;;;;;;;7.13;4.53;;;;;;;4.58;93.86;95077.59;4906734;29;20191;-84
2023/03/12 08:53:11;;;;;;;5.90;5.40;;;;;;;4.52;94.84;95078.09;4889392;29;20187;-87
2023/03/12 08:55:36;;;;;;;6.60;4.87;;;;;;;4.59;95.71;95081.78;4902939;29;20200;-88
2023/03/12 08:58:01;;;;;;;5.03;3.53;;;;;;;4.55;97.56;95086.38;4907974;29;20191;-87
2023/03/12 09:00:28;;;;;;;4.20;3.80;;;;;;;4.77;97.54;95085.47;4892990;29;20777;-82
2023/03/12 09:02:56;;;;;;;6.60;3.30;;;;;;;5.04;96.75;95079.03;4900097;29;20221;-83
2023/03/12 09:05:22;;;;;;;4.00;2.60;;;;;;;5.19;98.46;95070.03;4896428;29;20195;-80
2023/03/12 09:07:48;;;;;;;2.50;2.30;;;;;;;5.49;96.77;95086.47;4892840;29;20599;-85
2023/03/12 09:10:14;;;;;;;4.57;3.53;;;;;;;5.42;99.14;95085.34;4881105;29;20207;-85
2023/03/12 09:12:39;;;;;;;4.27;3.53;;;;;;;5.75;97.61;95090.28;4893672;29;20649;-84
2023/03/12 09:15:05;;;;;;;3.03;2.63;;;;;;;5.92;97.32;95092.25;4882428;29;20215;-85
2023/03/12 09:17:31;;;;;;;2.37;1.90;;;;;;;5.92;98.04;95104.34;4899424;29;20291;-84
2023/03/12 09:19:56;;;;;;;3.50;2.20;;;;;;;5.88;98.78;95093.44;4899127;29;20655;-85
2023/03/12 09:22:22;;;;;;;2.10;1.90;;;;;;;5.78;100.00;95097.72;4890297;29;20218;-87
2023/03/12 09:24:47;;;;;;;2.60;2.40;;;;;;;5.88;100.00;95092.63;4893101;29;20243;-85
2023/03/12 09:27:12;;;;;;;2.37;2.17;;;;;;;6.05;100.00;95094.59;4898555;29;20215;-84
2023/03/12 09:29:38;;;;;;;2.33;2.13;;;;;;;6.01;100.00;95105.28;4891173;29;20213;-85
2023/03/12 09:32:03;;;;;;;1.70;1.60;;;;;;;6.28;100.00;95113.28;4898544;29;20201;-85
2023/03/12 09:34:29;;;;;;;1.70;1.30;;;;;;;6.33;98.96;95105.13;4898266;29;20683;-84
2023/03/12 09:36:54;;;;;;;2.30;1.70;;;;;;;6.37;99.19;95107.31;4888873;29;20219;-85
2023/03/12 09:39:21;;;;;;;1.67;1.57;;;;;;;6.42;99.66;95110.31;4883636;29;20226;-85
2023/03/12 09:41:47;;;;;;;3.37;2.60;;;;;;;6.61;96.99;95116.44;4885436;29;20191;-85
2023/03/12 09:44:21;;;;;;;3.53;2.80;;;;;;;6.67;97.51;95119.31;4893400;29;20560;-85
2023/03/12 09:46:53;;;;;;;3.60;2.87;;;;;;;6.65;97.78;95110.88;4883907;29;20303;-81
2023/03/12 09:49:36;;;;;;;1.40;1.13;;;;;;;6.91;97.10;95116.34;4887176;29;20215;-85
2023/03/12 09:52:06;;;;;;;1.13;1.03;;;;;;;6.84;97.47;95125.56;4877577;29;20191;-84
2023/03/12 09:54:46;;;;;;;1.33;1.17;;;;;;;7.08;97.29;95114.84;4891510;29;20203;-83
2023/03/12 09:57:16;;;;;;;3.27;2.53;;;;;;;7.24;97.48;95116.84;4880767;29;20214;-81
2023/03/12 09:59:42;;;;;;;2.33;2.00;;;;;;;7.29;97.59;95119.84;4899224;29;20190;-83
2023/03/12 10:02:29;;;;;;;1.37;1.20;;;;;;;7.26;97.61;95117.56;4898502;29;20314;-83
2023/03/12 10:04:58;;;;;;;1.47;1.00;;;;;;;7.10;98.07;95131.81;4880994;29;20470;-83
2023/03/12 10:07:29;;;;;;;3.47;2.30;;;;;;;6.98;99.82;95140.66;4870819;29;20211;-82
2023/03/12 10:10:13;;;;;;;4.10;2.67;;;;;;;7.08;99.33;95140.66;4900891;29;20190;-86
2023/03/12 10:12:59;;;;;;;4.40;1.77;;;;;;;7.17;99.44;95157.94;4911071;29;20284;-86
2023/03/12 11:38:54;;;;;;;4.50;2.33;;;;;;;8.34;97.08;95215.38;4915917;29;20290;-81
2023/03/12 11:41:26;;;;;;;6.30;2.60;;;;;;;8.43;96.03;95219.75;4918450;29;20227;-83
2023/03/12 11:44:32;;;;;;;6.10;2.77;;;;;;;8.43;95.59;95210.19;4900990;29;20214;-83
2023/03/12 11:47:06;;;;;;;7.00;3.43;;;;;;;8.44;95.25;95216.19;4920990;29;20213;-82
2023/03/12 11:49:37;;;;;;;5.83;2.60;;;;;;;8.61;94.67;95219.78;4934510;29;20886;-83
2023/03/12 11:52:19;;;;;;;5.70;3.23;;;;;;;8.90;93.16;95217.06;4931730;29;20296;-81
2023/03/12 11:55:10;;;;;;;10.17;4.80;;;;;;;8.98;91.60;95210.19;4935719;29;20260;-82
2023/03/12 11:57:57;;;;;;;7.80;2.90;;;;;;;8.94;90.21;95203.69;4921828;29;20741;-82
2023/03/12 12:00:54;;;;;;;6.03;2.87;;;;;;;8.95;91.38;95207.09;4952312;29;20200;-82
2023/03/12 12:03:46;;;;;;;7.20;2.50;;;;;;;8.75;91.58;95196.03;4948601;29;20240;-85
2023/03/12 12:13:48;;;;;;;7.20;3.40;;;;;;;9.23;90.34;95202.66;4843039;29;20219;-85
2023/03/12 12:16:58;;;;;;;8.73;3.70;;;;;;;9.01;89.70;95188.34;4840782;29;20221;-86
2023/03/12 12:19:54;;;;;;;7.57;2.90;;;;;;;8.88;89.59;95187.91;4859961;29;20268;-84
2023/03/12 12:30:12;;;;;;;8.40;3.20;;;;;;;8.61;93.22;95178.38;4771739;30;20211;-83
2023/03/12 13:01:48;;;;;;;8.43;2.53;;;;;;;9.86;85.64;95195.56;4688413;30;20223;-86
2023/03/12 13:07:52;;;;;;;7.97;2.33;;;;;;;10.08;81.57;95193.44;4669486;30;20243;-86
2023/03/12 13:11:08;;;;;;;6.10;2.70;;;;;;;10.04;82.16;95192.13;4674478;30;20215;-86
2023/03/12 13:13:59;;;;;;;6.93;2.30;;;;;;;10.20;81.29;95190.44;4748941;30;20300;-86
2023/03/12 13:28:33;;;;;;;;;;;;;;;;;;;;;
2023/03/12 13:32:08;;;;;;;10.23;3.40;;;;;;;9.84;80.62;95168.16;4796427;29;20299;-85
2023/03/12 13:35:47;;;;;;;;;;;;;;;;;;;;;
2023/03/12 13:49:10;;;;;;;;;;;;;;;;;;;;;
2023/03/12 13:52:33;;;;;;;;;;;;;;;;;;;;;
2023/03/12 14:03:17;;;;;;;11.87;2.93;;;;;;;9.23;84.08;95181.94;4795113;29;20233;-85
2023/03/12 14:10:54;;;;;;;;;;;;;;;;;;;;;
2023/03/12 14:13:26;;;;;;;163.13;13.97;;;;;;;9.73;81.42;95187.38;4741873;30;20333;-87
2023/03/12 14:22:13;;;;;;;;;;;;;;;;;;;;;
2023/03/12 14:35:17;;;;;;;;;;;;;;;;;;;;;
2023/03/12 14:48:04;;;;;;;10.63;4.47;;;;;;;11.00;73.10;95190.13;4997676;23;20240;-84
2023/03/12 15:49:38;;;;;;;10.07;2.10;;;;;;;9.51;76.62;95174.88;4915865;29;20193;-83
2023/03/12 15:52:53;;;;;;;;;;;;;;;;;;;;;
2023/03/12 16:39:10;;;;;;;10.47;2.90;;;;;;;9.13;74.31;95166.47;3258463;26;20229;-86
2023/03/12 16:41:44;;;;;;;12.47;3.23;;;;;;;9.15;74.18;95163.72;4994128;28;20220;-83
2023/03/12 16:48:27;;;;;;;10.53;2.53;;;;;;;8.97;74.33;95158.53;4879786;29;20231;-84
2023/03/12 16:58:27;;;;;;;;;;;;;;;;;;;;;
2023/03/12 17:05:02;;;;;;;11.90;2.90;;;;;;;8.70;75.68;95155.03;4963771;29;20231;-86
2023/03/12 17:11:52;;;;;;;9.53;2.93;;;;;;;8.66;75.75;95174.41;4907369;29;20223;-84
2023/03/12 17:14:44;;;;;;;;;;;;;;;;;;;;;
2023/03/12 17:17:48;;;;;;;;;;;;;;;;;;;;;
2023/03/12 18:27:22;;;;;;;9.60;3.97;;;;;;;7.45;81.26;95210.53;5006815;28;20323;-86
2023/03/12 18:34:53;;;;;;;;;;;;;;;;;;;;;
2023/03/12 18:37:40;;;;;;;8.10;3.20;;;;;;;7.41;81.75;95219.47;4865842;29;20256;-84
2023/03/12 18:41:16;;;;;;;;;;;;;;;;;;;;;
2023/03/12 18:43:41;;;;;;;12.50;3.93;;;;;;;7.45;81.00;95226.03;4881714;29;20226;-84
2023/03/12 18:56:09;;;;;;;12.20;4.00;;;;;;;7.26;82.00;95211.34;5002871;28;20234;-86
2023/03/12 18:59:45;;;;;;;;;;;;;;;;;;;;;
2023/03/12 19:08:30;;;;;;;14.07;3.30;;;;;;;7.06;81.72;95214.84;4897154;29;20204;-89
2023/03/12 19:28:34;;;;;;;;;;;;;;;;;;;;;
2023/03/12 19:35:09;;;;;;;9.00;3.43;;;;;;;6.85;83.93;95230.44;4860217;29;20314;-87
2023/03/12 19:38:08;;;;;;;15.27;5.00;;;;;;;6.85;83.69;95238.19;4867017;29;20622;-86
2023/03/12 19:52:09;;;;;;;9.00;4.20;;;;;;;6.80;84.14;95238.59;4831433;29;20212;-86
2023/03/12 21:24:02;;;;;;;11.00;3.50;;;;;;;7.32;79.36;95200.44;5004847;28;20218;-78
2023/03/12 21:30:40;;;;;;;19.40;4.00;;;;;;;7.37;78.99;95212.97;4881794;29;20650;-79
2023/03/12 21:33:48;;;;;;;10.77;3.13;;;;;;;7.67;77.12;95212.00;4819660;29;20217;-78
2023/03/12 21:40:39;;;;;;;;;;;;;;;;;;;;;
2023/03/12 22:10:51;;;;;;;16.50;2.87;;;;;;;7.79;75.61;95177.31;4995207;28;20196;-85
